Time;durP1;ratioP1;P1;durP2;ratioP2;P2;SDS_P1;SDS_P2;PMS_P1;PMS_P2;Temp;Humidity;BMP_temperature;BMP_pressure;BME280_temperature;BME280_humidity;BME280_pressure;Samples;Min_cycle;Max_cycle;Signal;HPM_P1;HPM_P2
2024/04/22 00:00:56;;;;;;;4.60;2.97;;;;;;;-145.69;60.75;52359.22;5533410;26;20280;-79
2024/04/22 00:03:29;;;;;;;5.30;3.80;;;;;;;-145.69;60.76;52357.25;5533036;26;20847;-79
2024/04/22 00:05:55;;;;;;;6.77;3.67;;;;;;;-145.69;60.99;52375.06;5531082;26;20275;-78
2024/04/22 00:08:23;;;;;;;5.60;3.87;;;;;;;-145.69;61.37;52365.16;5529880;26;20225;-79
2024/04/22 00:11:01;;;;;;;5.63;3.40;;;;;;;-145.69;61.27;52333.47;5530384;26;20337;-78
2024/04/22 00:13:29;;;;;;;5.87;3.87;;;;;;;-145.69;61.62;52381.00;5529857;26;20677;-78
2024/04/22 00:15:54;;;;;;;5.27;3.90;;;;;;;-145.69;61.49;52377.06;5531861;26;20306;-79
2024/04/22 00:18:23;;;;;;;7.73;4.70;;;;;;;-145.69;62.51;52361.22;5530153;26;20225;-80
2024/04/22 00:20:48;;;;;;;8.80;5.57;;;;;;;-145.69;61.91;52359.22;5529236;26;20218;-80
2024/04/22 00:23:17;;;;;;;6.83;4.40;;;;;;;-145.69;62.06;52381.00;5530887;26;20275;-81
2024/04/22 00:25:45;;;;;;;6.43;4.83;;;;;;;-145.69;62.18;52365.16;5530089;26;20270;-79
2024/04/22 00:28:16;;;;;;;7.47;4.63;;;;;;;-145.69;62.54;52353.28;5529891;26;20281;-81
2024/04/22 00:30:41;;;;;;;5.63;3.90;;;;;;;-145.69;62.26;52375.06;5529441;26;20337;-82
2024/04/22 00:33:11;;;;;;;7.17;4.40;;;;;;;-145.69;62.34;52337.44;5526972;26;20233;-80
2024/04/22 00:35:37;;;;;;;6.97;4.33;;;;;;;-145.69;62.48;52341.41;5530146;26;20285;-81
2024/04/22 00:38:06;;;;;;;6.20;4.30;;;;;;;-145.69;62.44;52349.31;5531324;26;20268;-81
2024/04/22 00:40:31;;;;;;;8.00;4.30;;;;;;;-145.69;62.62;52381.00;5536037;26;20221;-81
2024/04/22 00:43:01;;;;;;;6.57;4.90;;;;;;;-145.69;62.40;52351.31;5531268;26;20261;-80
2024/04/22 00:45:32;;;;;;;7.53;4.70;;;;;;;-145.69;62.39;52333.47;5531445;26;20264;-80
2024/04/22 00:48:01;;;;;;;6.67;4.70;;;;;;;-145.69;63.26;52361.22;5529897;26;20264;-81
2024/04/22 00:50:26;;;;;;;7.13;4.90;;;;;;;-145.69;63.33;52363.19;5533723;26;20631;-81
2024/04/22 00:52:55;;;;;;;7.77;5.13;;;;;;;-145.69;63.17;52337.44;5530057;26;20225;-80
2024/04/22 00:55:22;;;;;;;7.33;4.70;;;;;;;-145.69;63.75;52353.28;5532387;26;20714;-80
2024/04/22 00:57:53;;;;;;;6.23;4.33;;;;;;;-145.69;63.64;52386.97;5531522;26;20267;-81
2024/04/22 01:00:19;;;;;;;6.93;4.60;;;;;;;-145.69;64.14;52365.16;5531549;26;20268;-79
2024/04/22 01:02:51;;;;;;;7.33;4.50;;;;;;;-145.69;64.12;52379.03;5527512;26;20237;-79
2024/04/22 01:05:16;;;;;;;8.33;5.13;;;;;;;-145.69;64.14;52367.16;5528497;26;20264;-79
2024/04/22 01:07:45;;;;;;;7.97;5.33;;;;;;;-145.69;64.26;52329.53;5527796;26;20261;-78
2024/04/22 01:10:13;;;;;;;6.80;4.93;;;;;;;-145.69;64.37;52392.91;5527401;26;20221;-79
2024/04/22 01:12:39;;;;;;;6.97;4.90;;;;;;;-145.69;64.11;52357.25;5527280;26;20270;-79
2024/04/22 01:15:08;;;;;;;6.37;4.17;;;;;;;-145.69;64.05;52371.13;5527876;26;20221;-79
2024/04/22 01:17:38;;;;;;;7.80;4.60;;;;;;;-145.69;64.14;52335.47;5527866;26;20237;-79
2024/04/22 01:20:10;;;;;;;7.53;4.83;;;;;;;-145.69;64.28;52373.09;5527127;26;20248;-79
2024/04/22 01:22:39;;;;;;;7.43;4.93;;;;;;;-145.69;64.21;52363.19;5527996;26;20222;-79
2024/04/22 01:25:10;;;;;;;7.93;4.80;;;;;;;-145.69;64.43;52329.53;5526871;26;20237;-79
2024/04/22 01:27:37;;;;;;;7.50;4.73;;;;;;;-145.69;63.96;52371.13;5528763;26;20237;-79
2024/04/22 01:30:07;;;;;;;9.00;4.63;;;;;;;-145.69;64.13;52337.44;5530622;26;20301;-79
2024/04/22 01:32:32;;;;;;;5.27;3.83;;;;;;;-145.69;63.74;52373.09;5533468;26;20361;-79
2024/04/22 01:35:03;;;;;;;6.20;4.17;;;;;;;-145.69;63.71;52357.25;5533515;26;20229;-79
2024/04/22 01:37:29;;;;;;;5.93;4.10;;;;;;;-145.69;63.71;52341.41;5537108;26;20237;-80
2024/04/22 01:40:02;;;;;;;4.50;3.10;;;;;;;-145.69;64.04;52377.06;5539374;26;20268;-79
2024/04/22 01:42:31;;;;;;;4.80;3.50;;;;;;;-145.69;64.11;52363.19;5541086;26;20229;-79
2024/04/22 01:44:59;;;;;;;4.40;3.33;;;;;;;-145.69;64.44;52369.13;5542708;26;20280;-79
2024/04/22 01:47:24;;;;;;;3.53;3.03;;;;;;;-145.69;63.82;52363.19;5542216;26;20221;-80
2024/04/22 01:49:55;;;;;;;4.50;3.20;;;;;;;-145.69;64.11;52343.38;5543580;26;20285;-79
2024/04/22 01:52:21;;;;;;;5.23;3.57;;;;;;;-145.69;64.01;52377.06;5544541;26;20784;-79
2024/04/22 01:54:51;;;;;;;4.13;3.13;;;;;;;-145.69;64.39;52363.19;5542915;26;20233;-79
2024/04/22 01:57:20;;;;;;;3.73;2.77;;;;;;;-145.69;64.10;52371.13;5542082;26;20274;-80
2024/04/22 01:59:50;;;;;;;3.73;2.60;;;;;;;-145.69;64.45;52331.50;5544079;26;20322;-79
2024/04/22 02:02:18;;;;;;;3.90;2.83;;;;;;;-145.69;64.27;52365.16;5523643;26;20286;-80
2024/04/22 02:04:47;;;;;;;3.90;3.03;;;;;;;-145.69;64.49;52345.38;5539914;26;20622;-80
2024/04/22 02:07:12;;;;;;;7.73;4.70;;;;;;;-145.69;62.96;52355.28;5538283;26;20221;-81
2024/04/22 02:09:40;;;;;;;7.97;5.03;;;;;;;-145.69;62.76;52377.06;5542966;26;20256;-82
2024/04/22 02:12:06;;;;;;;7.93;5.27;;;;;;;-145.69;62.92;52371.13;5543309;26;20265;-81
2024/04/22 02:14:38;;;;;;;7.50;4.97;;;;;;;-145.69;62.67;52381.00;5547938;26;20322;-81
2024/04/22 02:17:03;;;;;;;7.00;4.90;;;;;;;-145.69;62.84;52357.25;5543516;26;20225;-80
2024/04/22 02:19:32;;;;;;;10.47;5.50;;;;;;;-145.69;62.17;52329.53;5540389;26;20306;-81
2024/04/22 02:21:57;;;;;;;7.37;4.83;;;;;;;-145.69;62.25;52377.06;5538993;26;20588;-81
2024/04/22 02:24:28;;;;;;;10.03;5.43;;;;;;;-145.69;62.35;52377.06;5535742;26;20221;-81
2024/04/22 02:26:53;;;;;;;9.90;5.53;;;;;;;-145.69;62.92;52369.13;5536213;26;20329;-80
2024/04/22 02:29:22;;;;;;;9.47;5.30;;;;;;;-145.69;62.48;52345.38;5536073;26;20294;-80
2024/04/22 02:31:50;;;;;;;9.57;5.77;;;;;;;-145.69;62.60;52359.22;5534568;26;20780;-81
2024/04/22 02:34:22;;;;;;;8.77;5.40;;;;;;;-145.69;62.79;52353.28;5533782;26;20217;-81
2024/04/22 02:36:53;;;;;;;11.17;5.97;;;;;;;-145.69;63.21;52341.41;5536335;26;20321;-80
2024/04/22 02:39:24;;;;;;;10.40;5.80;;;;;;;-145.69;62.71;52373.09;5538844;26;20264;-81
2024/04/22 02:41:50;;;;;;;9.27;6.27;;;;;;;-145.69;62.76;52329.53;5535450;26;20251;-81
2024/04/22 02:44:18;;;;;;;10.43;6.07;;;;;;;-145.69;62.81;52363.19;5537558;26;20225;-81
2024/04/22 02:46:43;;;;;;;9.80;5.83;;;;;;;-145.69;63.19;52361.22;5541109;26;20311;-82
2024/04/22 02:49:14;;;;;;;8.77;5.77;;;;;;;-145.69;63.00;52363.19;5540368;26;20213;-81
2024/04/22 02:51:40;;;;;;;12.77;5.87;;;;;;;-145.69;63.06;52349.31;5539249;26;20802;-81
2024/04/22 02:54:11;;;;;;;11.00;6.23;;;;;;;-145.69;63.11;52365.16;5540965;26;20273;-81
2024/04/22 02:56:38;;;;;;;9.43;5.77;;;;;;;-145.69;62.82;52365.16;5539630;26;20225;-81
2024/04/22 02:59:06;;;;;;;9.70;6.17;;;;;;;-145.69;62.99;52367.16;5535458;26;20604;-80
2024/04/22 03:01:36;;;;;;;8.40;5.70;;;;;;;-145.69;63.12;52414.69;5542988;26;20315;-80
2024/04/22 03:04:04;;;;;;;10.03;5.83;;;;;;;-145.69;64.14;52351.31;5539397;26;20294;-80
2024/04/22 03:06:32;;;;;;;10.63;6.23;;;;;;;-145.69;64.08;52341.41;5538817;26;20288;-79
2024/04/22 03:09:03;;;;;;;9.47;5.70;;;;;;;-145.69;63.78;52373.09;5537343;26;20221;-78
2024/04/22 03:11:28;;;;;;;7.03;5.03;;;;;;;-145.69;63.27;52359.22;5536296;26;20222;-80
2024/04/22 03:13:57;;;;;;;11.17;5.73;;;;;;;-145.69;62.96;52341.41;5539695;26;20267;-80
2024/04/22 03:16:22;;;;;;;12.27;6.07;;;;;;;-145.69;62.62;52377.06;5542742;26;20257;-80
2024/04/22 03:18:55;;;;;;;11.20;5.30;;;;;;;-145.69;62.87;52377.06;5542919;26;20720;-80
2024/04/22 03:21:20;;;;;;;10.57;5.53;;;;;;;-145.69;62.26;52341.41;5543667;26;20230;-81
2024/04/22 03:23:53;;;;;;;9.10;5.33;;;;;;;-145.69;62.21;52365.16;5544629;26;20221;-81
2024/04/22 03:26:18;;;;;;;9.07;5.63;;;;;;;-145.69;62.23;52369.13;5543501;26;20832;-80
2024/04/22 03:28:47;;;;;;;7.67;5.37;;;;;;;-145.69;62.31;52381.00;5541846;26;20221;-80
2024/04/22 03:31:12;;;;;;;9.47;5.53;;;;;;;-145.69;62.41;52345.38;5544077;26;20229;-80
2024/04/22 03:33:40;;;;;;;7.87;4.97;;;;;;;-145.69;62.40;52388.94;5541177;26;20700;-80
2024/04/22 03:36:07;;;;;;;8.33;5.27;;;;;;;-145.69;62.31;52377.06;5540496;26;20252;-80
2024/04/22 03:38:35;;;;;;;8.90;5.13;;;;;;;-145.69;62.30;52371.13;5538197;26;20599;-80
2024/04/22 03:41:06;;;;;;;8.47;5.37;;;;;;;-145.69;62.01;52371.13;5536885;26;20313;-80
2024/04/22 03:43:34;;;;;;;9.73;5.73;;;;;;;-145.69;62.68;52357.25;5539448;26;20264;-80
2024/04/22 03:51:31;;;;;;;7.63;4.83;;;;;;;-145.69;62.18;52377.06;5546587;26;20305;-81
2024/04/22 03:53:59;;;;;;;7.47;4.80;;;;;;;-145.69;62.62;52359.22;5539544;26;20613;-80
2024/04/22 03:56:30;;;;;;;9.60;4.80;;;;;;;-145.69;62.64;52361.22;5540883;26;20331;-81
2024/04/22 03:58:58;;;;;;;8.27;5.07;;;;;;;-145.69;62.75;52398.84;5539783;26;20229;-81
2024/04/22 04:01:26;;;;;;;7.77;4.90;;;;;;;-145.69;63.32;52381.00;5541614;26;20229;-81
2024/04/22 04:03:52;;;;;;;7.90;5.27;;;;;;;-145.69;63.36;52384.97;5541735;26;20352;-81
2024/04/22 04:06:20;;;;;;;8.73;5.10;;;;;;;-145.69;62.99;52371.13;5506584;26;20230;-80
2024/04/22 04:08:46;;;;;;;8.50;5.47;;;;;;;-145.69;62.66;52371.13;5509682;26;20230;-80
2024/04/22 04:11:16;;;;;;;9.03;5.30;;;;;;;-145.69;63.06;52345.38;5511527;26;20218;-79
2024/04/22 04:13:44;;;;;;;7.37;4.77;;;;;;;-145.69;63.64;52383.00;5508652;26;20219;-80
2024/04/22 04:16:12;;;;;;;8.63;5.60;;;;;;;-145.69;63.31;52353.28;5508656;26;20219;-79
2024/04/22 04:18:38;;;;;;;7.20;4.93;;;;;;;-145.69;63.35;52353.28;5506125;26;20219;-78
2024/04/22 04:21:07;;;;;;;19.07;6.00;;;;;;;-145.69;63.39;52361.22;5497072;26;20219;-81
2024/04/22 04:23:33;;;;;;;10.03;6.00;;;;;;;-145.69;63.51;52379.03;5500286;26;20222;-80
2024/04/22 04:26:02;;;;;;;8.67;5.33;;;;;;;-145.69;63.91;52365.16;5499494;26;20285;-80
2024/04/22 04:28:28;;;;;;;9.67;5.27;;;;;;;-145.69;63.74;52394.88;5505582;26;20230;-78
2024/04/22 04:31:00;;;;;;;8.60;5.70;;;;;;;-145.69;63.36;52333.47;5536686;26;20840;-79
2024/04/22 04:33:25;;;;;;;8.93;5.37;;;;;;;-145.69;63.84;52351.31;5536402;26;20229;-78
2024/04/22 04:36:00;;;;;;;11.93;6.50;;;;;;;-145.69;63.23;52361.22;5529839;26;20712;-79
2024/04/22 04:38:25;;;;;;;9.87;5.23;;;;;;;-145.69;63.82;52361.22;5531397;26;20233;-79
2024/04/22 04:40:53;;;;;;;9.93;5.33;;;;;;;-145.69;63.54;52353.28;5529173;26;20780;-79
2024/04/22 04:43:19;;;;;;;9.73;5.77;;;;;;;-145.69;63.22;52373.09;5534452;26;20337;-81
2024/04/22 04:45:48;;;;;;;9.20;5.87;;;;;;;-145.69;63.71;52377.06;5538199;26;20233;-81
2024/04/22 04:48:16;;;;;;;11.60;5.57;;;;;;;-145.69;63.44;52377.06;5538708;26;20290;-81
2024/04/22 04:50:45;;;;;;;9.33;5.77;;;;;;;-145.69;63.75;52383.00;5538868;26;20617;-79
2024/04/22 04:53:11;;;;;;;11.30;6.23;;;;;;;-145.69;64.12;52369.13;5539951;26;20639;-80
2024/04/22 04:55:39;;;;;;;14.13;5.80;;;;;;;-145.69;64.15;52345.38;5539968;26;20252;-80
2024/04/22 04:58:07;;;;;;;11.10;5.80;;;;;;;-145.69;63.83;52357.25;5532566;26;20350;-80
2024/04/22 05:00:35;;;;;;;9.67;6.07;;;;;;;-145.69;64.09;52377.06;5534852;26;20233;-79
2024/04/22 05:03:01;;;;;;;10.77;6.33;;;;;;;-145.69;64.03;52424.59;5536827;26;20320;-80
2024/04/22 05:05:32;;;;;;;10.63;6.50;;;;;;;-145.69;64.22;52381.00;5537445;26;20206;-82
2024/04/22 05:07:57;;;;;;;10.27;6.10;;;;;;;-145.69;64.31;52359.22;5538114;26;20229;-81
2024/04/22 05:10:26;;;;;;;8.53;5.73;;;;;;;-145.69;64.17;52377.06;5531213;26;20641;-80
2024/04/22 05:12:51;;;;;;;11.27;6.40;;;;;;;-145.69;64.28;52365.16;5529193;26;20266;-82
2024/04/22 05:15:20;;;;;;;9.73;6.00;;;;;;;-145.69;64.16;52365.16;5532851;26;20306;-80
2024/04/22 05:17:46;;;;;;;9.80;5.60;;;;;;;-145.69;64.07;52377.06;5533334;26;20221;-80
2024/04/22 05:20:14;;;;;;;9.00;5.43;;;;;;;-145.69;64.21;52363.19;5535583;26;20260;-81
2024/04/22 05:22:42;;;;;;;9.03;5.17;;;;;;;-145.69;63.92;52367.16;5534284;26;20753;-81
2024/04/22 05:25:11;;;;;;;11.67;5.90;;;;;;;-145.69;63.81;52402.78;5533336;26;20234;-81
2024/04/22 05:27:36;;;;;;;10.37;5.07;;;;;;;-145.69;63.64;52373.09;5528832;26;20354;-78
2024/04/22 05:30:05;;;;;;;12.00;5.70;;;;;;;-145.69;63.88;52394.88;5529389;26;20233;-79
2024/04/22 05:32:32;;;;;;;11.37;5.50;;;;;;;-145.69;63.75;52404.78;5527530;26;20716;-76
2024/04/22 05:37:46;;;;;;;11.67;5.63;;;;;;;-145.69;63.51;52379.03;5539650;26;20408;-80
2024/04/22 05:40:15;;;;;;;9.10;5.93;;;;;;;-145.69;63.71;52361.22;5529349;26;20226;-80
2024/04/22 05:42:43;;;;;;;11.60;5.90;;;;;;;-145.69;63.66;52377.06;5535176;26;20289;-78
2024/04/22 05:45:11;;;;;;;9.20;5.60;;;;;;;-145.69;63.73;52369.13;5532897;26;20214;-77
2024/04/22 05:47:37;;;;;;;10.43;5.57;;;;;;;-145.69;63.42;52400.81;5533419;26;20222;-80
2024/04/22 05:50:05;;;;;;;9.70;6.20;;;;;;;-145.69;63.59;52361.22;5532335;26;20604;-80
2024/04/22 05:52:33;;;;;;;11.00;6.37;;;;;;;-145.69;63.23;52375.06;5535136;26;20584;-80
2024/04/22 05:55:04;;;;;;;8.57;5.30;;;;;;;-145.69;63.26;52341.41;5531116;26;20221;-80
2024/04/22 05:57:30;;;;;;;9.70;5.90;;;;;;;-145.69;63.21;52365.16;5533023;26;20734;-80
2024/04/22 05:59:58;;;;;;;9.50;4.90;;;;;;;-145.69;62.76;52388.94;5528086;26;20222;-80
2024/04/22 06:02:24;;;;;;;9.40;5.43;;;;;;;-145.69;62.72;52383.00;5501125;26;20231;-79
2024/04/22 06:04:52;;;;;;;9.27;5.20;;;;;;;-145.69;62.89;52377.06;5500457;26;20218;-81
2024/04/22 06:07:17;;;;;;;9.13;5.20;;;;;;;-145.69;62.68;52365.16;5499715;26;20699;-80
2024/04/22 06:09:45;;;;;;;9.50;5.50;;;;;;;-145.69;62.81;52379.03;5497171;26;20238;-81
2024/04/22 06:12:16;;;;;;;7.90;4.67;;;;;;;-145.69;62.51;52357.25;5497688;26;20223;-80
2024/04/22 06:14:42;;;;;;;8.53;5.27;;;;;;;-145.69;62.65;52339.44;5497147;26;20222;-80
2024/04/22 06:17:10;;;;;;;11.27;5.13;;;;;;;-145.69;62.68;52361.22;5495798;26;20269;-80
2024/04/22 06:19:36;;;;;;;7.77;4.50;;;;;;;-145.69;62.34;52351.31;5494086;26;20235;-80
2024/04/22 06:22:04;;;;;;;9.67;5.20;;;;;;;-145.69;62.47;52392.91;5491685;26;20330;-82
2024/04/22 06:24:31;;;;;;;8.03;4.87;;;;;;;-145.69;62.53;52384.97;5493690;26;20326;-81
2024/04/22 06:26:59;;;;;;;10.80;5.27;;;;;;;-145.69;62.48;52400.81;5489995;26;20338;-81
2024/04/22 06:29:28;;;;;;;10.27;5.57;;;;;;;-145.69;62.61;52392.91;5514989;26;20222;-81
2024/04/22 06:31:56;;;;;;;9.70;5.13;;;;;;;-145.69;62.99;52373.09;5533408;26;20276;-80
2024/04/22 06:34:21;;;;;;;7.83;4.97;;;;;;;-145.69;62.67;52400.81;5532781;26;20684;-82
2024/04/22 06:36:49;;;;;;;10.20;5.00;;;;;;;-145.69;62.94;52398.84;5533309;26;20221;-81
2024/04/22 06:39:16;;;;;;;8.63;5.40;;;;;;;-145.69;62.69;52365.16;5535186;26;20225;-81
2024/04/22 06:41:44;;;;;;;11.50;5.03;;;;;;;-145.69;62.45;52381.00;5535078;26;20269;-80
2024/04/22 06:44:10;;;;;;;8.93;5.30;;;;;;;-145.69;62.85;52369.13;5535230;26;20267;-80
2024/04/22 06:46:41;;;;;;;9.40;5.10;;;;;;;-145.69;62.60;52388.94;5535168;26;20318;-81
2024/04/22 06:49:06;;;;;;;11.07;5.43;;;;;;;-145.69;62.71;52363.19;5538311;26;20268;-81
2024/04/22 06:51:34;;;;;;;8.20;5.20;;;;;;;-145.69;62.68;52341.41;5537278;26;20225;-81
2024/04/22 06:54:00;;;;;;;8.50;5.40;;;;;;;-145.69;62.88;52404.78;5538693;26;20221;-81
2024/04/22 06:56:29;;;;;;;7.83;4.67;;;;;;;-145.69;62.75;52341.41;5540307;26;20268;-82
2024/04/22 06:58:54;;;;;;;7.23;4.90;;;;;;;-145.69;62.12;52392.91;5537449;26;20229;-81
2024/04/22 07:01:22;;;;;;;9.03;4.73;;;;;;;-145.69;62.41;52381.00;5540070;26;20269;-81
2024/04/22 07:03:51;;;;;;;6.37;4.37;;;;;;;-145.69;62.60;52381.00;5538472;26;20264;-82
2024/04/22 07:06:22;;;;;;;8.33;4.77;;;;;;;-145.69;62.58;52345.38;5534010;26;20218;-81
2024/04/22 07:08:47;;;;;;;8.67;5.37;;;;;;;-145.69;62.89;52373.09;5535909;26;20260;-81
2024/04/22 07:11:15;;;;;;;10.10;5.13;;;;;;;-145.69;63.00;52357.25;5532722;26;20221;-80
2024/04/22 07:13:43;;;;;;;7.93;4.40;;;;;;;-145.69;63.07;52361.22;5535072;26;20285;-81
2024/04/22 07:16:13;;;;;;;8.27;4.73;;;;;;;-145.69;63.09;52375.06;5533452;26;20317;-81
2024/04/22 07:18:38;;;;;;;7.97;5.30;;;;;;;-145.69;63.40;52373.09;5536024;26;20222;-80
2024/04/22 07:21:09;;;;;;;8.77;4.70;;;;;;;-145.69;63.36;52388.94;5530979;26;20267;-80
2024/04/22 07:23:35;;;;;;;7.33;4.43;;;;;;;-145.69;63.70;52359.22;5531757;26;20225;-81
2024/04/22 07:26:05;;;;;;;7.63;4.43;;;;;;;-145.69;63.67;52377.06;5528779;26;20275;-80
2024/04/22 07:28:31;;;;;;;9.63;4.67;;;;;;;-145.69;63.94;52377.06;5531980;26;20309;-80
2024/04/22 07:31:00;;;;;;;9.60;4.63;;;;;;;-145.69;63.70;52369.13;5532901;26;20252;-81
2024/04/22 07:33:26;;;;;;;8.93;4.80;;;;;;;-145.69;64.13;52369.13;5531258;26;20245;-79
2024/04/22 07:35:58;;;;;;;8.57;4.80;;;;;;;-145.69;64.65;52349.31;5533831;26;20289;-80
2024/04/22 07:38:31;;;;;;;7.23;4.63;;;;;;;-145.69;63.83;52381.00;5534854;26;20350;-81
2024/04/22 07:40:59;;;;;;;7.40;4.80;;;;;;;-145.69;64.14;52367.16;5534408;26;20217;-81
2024/04/22 07:43:25;;;;;;;8.73;4.73;;;;;;;-145.69;63.71;52333.47;5533211;26;20271;-81
2024/04/22 07:45:53;;;;;;;8.40;4.63;;;;;;;-145.69;63.78;52373.09;5532545;26;20560;-81
2024/04/22 07:48:20;;;;;;;10.03;4.37;;;;;;;-145.69;63.77;52351.31;5532671;26;20225;-80
2024/04/22 07:50:48;;;;;;;9.40;4.57;;;;;;;-145.69;63.12;52388.94;5531386;26;20313;-81
2024/04/22 07:53:14;;;;;;;6.87;4.60;;;;;;;-145.69;63.38;52349.31;5534478;26;20285;-80
2024/04/22 07:55:46;;;;;;;6.80;4.13;;;;;;;-145.69;63.25;52384.97;5529381;26;20260;-80
2024/04/22 07:58:12;;;;;;;7.50;4.67;;;;;;;-145.69;63.37;52369.13;5531295;26;20685;-81
2024/04/22 08:00:41;;;;;;;7.77;4.50;;;;;;;-145.69;63.31;52371.13;5528480;26;20650;-80
2024/04/22 08:03:07;;;;;;;5.90;4.17;;;;;;;-145.69;63.64;52388.94;5528570;26;20265;-79
2024/04/22 08:05:36;;;;;;;7.40;4.63;;;;;;;-145.69;63.80;52369.13;5500086;26;20295;-81
2024/04/22 08:08:03;;;;;;;5.87;4.40;;;;;;;-145.69;63.35;52369.13;5493898;26;20274;-81
2024/04/22 08:10:31;;;;;;;6.03;4.53;;;;;;;-145.69;62.71;52367.16;5490653;26;20322;-81
2024/04/22 08:13:00;;;;;;;8.50;4.80;;;;;;;-145.69;62.32;52341.41;5491751;26;20272;-81
2024/04/22 08:15:28;;;;;;;6.00;3.93;;;;;;;-145.69;62.04;52325.56;5526504;26;20221;-82
2024/04/22 08:17:53;;;;;;;6.63;4.57;;;;;;;-145.69;61.84;52365.16;5526829;26;20264;-82
2024/04/22 08:20:21;;;;;;;8.87;4.53;;;;;;;-145.69;61.29;52394.88;5524523;26;20712;-80
2024/04/22 08:22:47;;;;;;;6.60;4.40;;;;;;;-145.69;61.04;52361.22;5515670;26;20344;-82
2024/04/22 08:25:15;;;;;;;9.33;4.17;;;;;;;-145.69;60.78;52353.28;5491416;26;20243;-82
2024/04/22 08:27:41;;;;;;;6.93;4.23;;;;;;;-145.69;60.64;52371.13;5503334;25;20281;-80
2024/04/22 08:30:13;;;;;;;9.43;5.00;;;;;;;-145.69;60.18;52359.22;5522311;26;20233;-82
2024/04/22 08:32:39;;;;;;;6.77;4.77;;;;;;;-145.69;60.29;52373.09;5529398;26;20237;-81
2024/04/22 08:35:07;;;;;;;7.20;3.93;;;;;;;-145.69;60.68;52381.00;5528519;26;20222;-81
2024/04/22 08:37:33;;;;;;;6.20;4.30;;;;;;;-145.69;60.93;52369.13;5528550;26;20229;-81
2024/04/22 08:40:01;;;;;;;7.83;4.33;;;;;;;-145.69;60.87;52367.16;5527475;26;20319;-80
2024/04/22 08:42:27;;;;;;;7.67;4.73;;;;;;;-145.69;60.79;52357.25;5529254;26;20255;-81
2024/04/22 08:44:55;;;;;;;7.37;4.50;;;;;;;-145.69;60.36;52361.22;5528755;26;20277;-79
2024/04/22 08:47:23;;;;;;;6.67;4.50;;;;;;;-145.69;59.56;52349.31;5528445;26;20217;-79
2024/04/22 08:49:51;;;;;;;6.70;4.10;;;;;;;-145.69;59.16;52386.97;5527915;26;20225;-81
2024/04/22 08:52:20;;;;;;;6.30;4.17;;;;;;;-145.69;59.11;52365.16;5527590;26;20265;-80
2024/04/22 08:54:45;;;;;;;8.00;4.20;;;;;;;-145.69;59.31;52373.09;5527231;26;20213;-83
2024/04/22 08:57:14;;;;;;;5.93;4.40;;;;;;;-145.69;59.40;52361.22;5529330;26;20313;-80
2024/04/22 08:59:40;;;;;;;8.00;4.10;;;;;;;-145.69;59.17;52359.22;5527311;26;20233;-79
2024/04/22 09:02:08;;;;;;;9.43;4.90;;;;;;;-145.69;59.00;52327.53;5531447;25;20255;-81
2024/04/22 09:04:36;;;;;;;5.90;3.97;;;;;;;-145.69;59.18;52353.28;5528738;26;20321;-80
2024/04/22 09:07:06;;;;;;;5.90;4.20;;;;;;;-145.69;59.36;52365.16;5526084;26;20229;-79
2024/04/22 09:09:32;;;;;;;6.80;4.60;;;;;;;-145.69;58.78;52373.09;5525881;26;20328;-78
2024/04/22 09:12:00;;;;;;;6.37;4.00;;;;;;;-145.69;59.36;52341.41;5526854;26;20229;-80
2024/04/22 09:14:26;;;;;;;5.77;3.83;;;;;;;-145.69;58.67;52339.44;5527457;26;20225;-80
2024/04/22 09:16:54;;;;;;;7.70;4.20;;;;;;;-145.69;58.69;52396.84;5528322;26;20213;-80
2024/04/22 09:19:21;;;;;;;6.93;3.90;;;;;;;-145.69;58.22;52331.50;5529847;26;20276;-79
2024/04/22 09:21:54;;;;;;;7.23;4.10;;;;;;;-145.69;58.48;52333.47;5527151;26;20233;-81
2024/04/22 09:24:20;;;;;;;6.33;4.03;;;;;;;-145.69;58.73;52339.44;5524710;26;20233;-81
2024/04/22 09:26:50;;;;;;;8.27;4.17;;;;;;;-145.69;58.93;52327.53;5520828;26;20632;-80
2024/04/22 09:29:21;;;;;;;6.37;4.37;;;;;;;-145.69;58.71;52335.47;5502250;26;20724;-77
2024/04/22 09:31:50;;;;;;;6.70;3.83;;;;;;;-145.69;58.57;52343.38;5526398;26;20693;-78
2024/04/22 09:34:21;;;;;;;6.40;4.17;;;;;;;-145.69;58.94;52337.44;5529858;26;20226;-82
2024/04/22 09:36:51;;;;;;;8.17;4.43;;;;;;;-145.69;58.95;52341.41;5529964;26;20273;-82
2024/04/22 09:39:19;;;;;;;8.23;4.30;;;;;;;-145.69;59.21;52333.47;5530113;26;20712;-80
2024/04/22 09:41:49;;;;;;;8.73;4.47;;;;;;;-145.69;58.92;52351.31;5526801;26;20231;-80
2024/04/22 09:44:15;;;;;;;7.50;4.00;;;;;;;-145.69;59.15;52349.31;5527778;26;20650;-80
2024/04/22 09:46:50;;;;;;;8.17;4.77;;;;;;;-145.69;59.10;52337.44;5531544;26;20260;-80
2024/04/22 09:49:17;;;;;;;5.60;3.93;;;;;;;-145.69;59.08;52369.13;5518655;26;20233;-82
2024/04/22 09:51:48;;;;;;;8.67;4.27;;;;;;;-145.69;58.37;52333.47;5529349;26;20214;-81
2024/04/22 09:54:16;;;;;;;7.97;4.67;;;;;;;-145.69;57.72;52331.50;5528101;26;20248;-81
2024/04/22 09:56:48;;;;;;;7.00;4.17;;;;;;;-145.69;58.08;52357.25;5525704;26;20315;-78
2024/04/22 09:59:17;;;;;;;11.60;4.17;;;;;;;-145.69;58.16;52343.38;5529349;26;20248;-81
2024/04/22 10:01:45;;;;;;;9.53;3.83;;;;;;;-145.69;57.82;52317.66;5525384;26;20259;-80
2024/04/22 10:04:12;;;;;;;7.23;3.83;;;;;;;-145.69;57.58;52325.56;5529628;26;20336;-78
2024/04/22 10:06:41;;;;;;;6.07;3.80;;;;;;;-145.69;57.53;52384.97;5527211;26;20229;-78
2024/04/22 10:09:06;;;;;;;9.13;4.23;;;;;;;-145.69;56.46;52361.22;5530225;26;20275;-80
2024/04/22 10:11:38;;;;;;;5.73;3.77;;;;;;;-145.69;56.64;52347.34;5530747;26;20225;-79
2024/04/22 10:14:11;;;;;;;5.60;3.70;;;;;;;-145.69;56.14;52357.25;5528623;26;20237;-81
2024/04/22 10:16:40;;;;;;;7.67;5.27;;;;;;;-145.69;55.78;52323.59;5531011;26;20233;-80
2024/04/22 10:19:06;;;;;;;9.57;4.47;;;;;;;-145.69;54.90;52347.34;5532117;26;20217;-79
2024/04/22 10:21:34;;;;;;;8.53;3.70;;;;;;;-145.69;55.06;52335.47;5534607;26;20222;-80
2024/04/22 10:24:00;;;;;;;5.30;3.50;;;;;;;-145.69;54.81;52347.34;5537244;26;20218;-81
2024/04/22 10:26:28;;;;;;;6.33;3.77;;;;;;;-145.69;53.62;52337.44;5532320;26;20268;-80
2024/04/22 10:28:57;;;;;;;7.77;3.83;;;;;;;-145.69;53.25;52353.28;5535150;26;20218;-81
2024/04/22 10:31:25;;;;;;;5.27;3.63;;;;;;;-145.69;52.62;52337.44;5532507;26;20213;-81
2024/04/22 10:33:51;;;;;;;4.90;3.33;;;;;;;-145.69;52.92;52305.75;5534300;26;20537;-82
2024/04/22 10:36:19;;;;;;;6.30;3.13;;;;;;;-145.69;52.68;52361.22;5535690;26;20274;-81
2024/04/22 10:38:45;;;;;;;5.47;3.80;;;;;;;-145.69;52.56;52339.44;5537552;26;20280;-81
2024/04/22 10:41:13;;;;;;;5.37;3.47;;;;;;;-145.69;52.57;52325.56;5534092;26;20217;-81
2024/04/22 10:43:41;;;;;;;7.07;3.70;;;;;;;-145.69;51.73;52291.91;5531992;26;20230;-82
2024/04/22 10:46:12;;;;;;;5.97;4.00;;;;;;;-145.69;51.73;52309.72;5535265;26;20276;-80
2024/04/22 10:48:38;;;;;;;6.57;4.17;;;;;;;-145.69;51.82;52307.75;5532207;26;20213;-81
2024/04/22 10:51:07;;;;;;;9.93;4.30;;;;;;;-145.69;52.04;52305.75;5529036;26;20782;-82
2024/04/22 10:53:32;;;;;;;4.63;3.37;;;;;;;-145.69;52.67;52353.28;5529998;26;20577;-81
2024/04/22 10:56:00;;;;;;;7.60;4.10;;;;;;;-145.69;52.69;52331.50;5530788;26;20221;-79
2024/04/22 10:58:27;;;;;;;10.03;3.90;;;;;;;-145.69;52.26;52325.56;5528708;26;20564;-81
2024/04/22 11:00:55;;;;;;;7.20;3.80;;;;;;;-145.69;53.01;52353.28;5529462;26;20222;-80
2024/04/22 11:03:24;;;;;;;6.77;3.87;;;;;;;-145.69;53.15;52315.66;5529531;26;20269;-82
2024/04/22 11:05:52;;;;;;;6.97;4.30;;;;;;;-145.69;51.93;52331.50;5528921;26;20359;-81
2024/04/22 11:08:19;;;;;;;5.30;4.07;;;;;;;-145.69;49.51;52285.97;5527246;26;20556;-81
2024/04/22 11:10:48;;;;;;;5.60;3.67;;;;;;;-145.69;49.10;52321.59;5527577;26;20213;-80
2024/04/22 11:13:14;;;;;;;6.93;3.83;;;;;;;-145.69;48.11;52274.06;5527654;26;20273;-80
2024/04/22 11:15:42;;;;;;;9.03;4.10;;;;;;;-145.69;46.46;52278.03;5527842;26;20229;-80
2024/04/22 11:18:08;;;;;;;8.20;4.23;;;;;;;-145.69;45.26;52289.91;5526352;26;20217;-80
2024/04/22 11:20:39;;;;;;;9.00;4.20;;;;;;;-145.69;43.74;52266.16;5527117;26;20281;-79
2024/04/22 11:23:05;;;;;;;7.80;3.80;;;;;;;-145.69;43.80;52289.91;5527681;26;20500;-79
2024/04/22 11:25:33;;;;;;;8.50;3.53;;;;;;;-145.69;44.07;52297.84;5527625;26;20820;-78
2024/04/22 11:27:59;;;;;;;6.93;3.50;;;;;;;-145.69;42.69;52246.34;5502927;26;20218;-79